sensor_id;sensor_type;location;lat;lon;timestamp;pressure;altitude;pressure_sealevel;temperature;humidity
65756;BME280;69208;47.502;18.940;2023-06-04T00:00:20;98393.00;;;14.20;45.42
65756;BME280;69208;47.502;18.940;2023-06-04T00:01:23;98390.66;;;14.10;45.91
65756;BME280;69208;47.502;18.940;2023-06-04T00:02:26;98384.75;;;14.04;46.72
65756;BME280;69208;47.502;18.940;2023-06-04T00:03:30;98388.78;;;14.10;45.29
65756;BME280;69208;47.502;18.940;2023-06-04T00:04:33;98383.84;;;14.18;44.92
65756;BME280;69208;47.502;18.940;2023-06-04T00:05:37;98387.25;;;14.36;43.81
65756;BME280;69208;47.502;18.940;2023-06-04T00:06:39;98390.81;;;14.40;43.54
65756;BME280;69208;47.502;18.940;2023-06-04T00:07:42;98384.75;;;14.30;44.11
65756;BME280;69208;47.502;18.940;2023-06-04T00:08:45;98392.19;;;14.37;44.04
65756;BME280;69208;47.502;18.940;2023-06-04T00:09:48;98387.88;;;14.41;43.49
65756;BME280;69208;47.502;18.940;2023-06-04T00:10:51;98390.50;;;14.41;43.58
65756;BME280;69208;47.502;18.940;2023-06-04T00:11:54;98392.37;;;14.41;43.28
65756;BME280;69208;47.502;18.940;2023-06-04T00:12:58;98386.94;;;14.46;43.44
65756;BME280;69208;47.502;18.940;2023-06-04T00:14:01;98393.63;;;14.34;43.39
65756;BME280;69208;47.502;18.940;2023-06-04T00:15:04;98389.25;;;14.39;43.85
65756;BME280;69208;47.502;18.940;2023-06-04T00:16:07;98394.06;;;14.37;43.60
65756;BME280;69208;47.502;18.940;2023-06-04T00:17:10;98394.84;;;14.37;43.99
65756;BME280;69208;47.502;18.940;2023-06-04T00:18:13;98398.72;;;14.31;44.27
65756;BME280;69208;47.502;18.940;2023-06-04T00:19:16;98392.19;;;14.37;43.77
65756;BME280;69208;47.502;18.940;2023-06-04T00:20:19;98399.97;;;14.33;44.20
65756;BME280;69208;47.502;18.940;2023-06-04T00:21:22;98396.56;;;14.33;45.22
65756;BME280;69208;47.502;18.940;2023-06-04T00:22:25;98390.97;;;14.34;44.17
65756;BME280;69208;47.502;18.940;2023-06-04T00:23:28;98393.44;;;14.31;43.52
65756;BME280;69208;47.502;18.940;2023-06-04T00:24:31;98391.59;;;14.23;44.26
65756;BME280;69208;47.502;18.940;2023-06-04T00:25:34;98390.03;;;14.22;44.35
65756;BME280;69208;47.502;18.940;2023-06-04T00:26:38;98395.00;;;14.32;44.10
65756;BME280;69208;47.502;18.940;2023-06-04T00:27:41;98388.78;;;14.37;43.99
65756;BME280;69208;47.502;18.940;2023-06-04T00:28:44;98393.91;;;14.24;45.46
65756;BME280;69208;47.502;18.940;2023-06-04T00:29:47;98387.25;;;14.18;45.03
65756;BME280;69208;47.502;18.940;2023-06-04T00:30:50;98387.72;;;14.29;44.38
65756;BME280;69208;47.502;18.940;2023-06-04T00:31:53;98387.25;;;14.27;45.09
65756;BME280;69208;47.502;18.940;2023-06-04T00:32:56;98388.34;;;14.26;44.73
65756;BME280;69208;47.502;18.940;2023-06-04T00:33:59;98389.12;;;14.26;44.37
65756;BME280;69208;47.502;18.940;2023-06-04T00:35:02;98380.44;;;14.26;44.15
65756;BME280;69208;47.502;18.940;2023-06-04T00:36:05;98385.25;;;14.24;44.37
65756;BME280;69208;47.502;18.940;2023-06-04T00:37:08;98385.53;;;14.22;44.05
65756;BME280;69208;47.502;18.940;2023-06-04T00:38:11;98381.22;;;14.18;44.38
65756;BME280;69208;47.502;18.940;2023-06-04T00:39:14;98389.56;;;14.28;44.03
65756;BME280;69208;47.502;18.940;2023-06-04T00:40:17;98392.19;;;14.28;44.36
65756;BME280;69208;47.502;18.940;2023-06-04T00:41:20;98395.00;;;14.41;44.15
65756;BME280;69208;47.502;18.940;2023-06-04T00:42:23;98389.88;;;14.27;44.04
65756;BME280;69208;47.502;18.940;2023-06-04T00:43:26;98396.41;;;14.38;43.92
65756;BME280;69208;47.502;18.940;2023-06-04T00:44:30;98389.91;;;14.53;43.90
65756;BME280;69208;47.502;18.940;2023-06-04T00:45:33;98395.16;;;14.44;43.86
65756;BME280;69208;47.502;18.940;2023-06-04T00:46:37;98400.72;;;14.25;44.04
65756;BME280;69208;47.502;18.940;2023-06-04T00:47:40;98388.78;;;14.37;43.92
65756;BME280;69208;47.502;18.940;2023-06-04T00:48:44;98388.34;;;14.34;44.86
65756;BME280;69208;47.502;18.940;2023-06-04T00:49:47;98389.88;;;14.44;44.02
65756;BME280;69208;47.502;18.940;2023-06-04T00:50:50;98388.50;;;14.38;44.13
65756;BME280;69208;47.502;18.940;2023-06-04T00:51:54;98390.38;;;14.29;44.62
65756;BME280;69208;47.502;18.940;2023-06-04T00:52:57;98392.53;;;14.36;44.60
65756;BME280;69208;47.502;18.940;2023-06-04T00:54:02;98383.38;;;14.33;44.84
65756;BME280;69208;47.502;18.940;2023-06-04T00:55:11;98387.09;;;14.32;44.63
65756;BME280;69208;47.502;18.940;2023-06-04T00:56:15;98386.63;;;14.39;44.15
65756;BME280;69208;47.502;18.940;2023-06-04T00:57:18;98392.53;;;14.36;43.77
65756;BME280;69208;47.502;18.940;2023-06-04T00:58:20;98393.78;;;14.38;44.30
65756;BME280;69208;47.502;18.940;2023-06-04T00:59:24;98381.66;;;14.46;44.01
65756;BME280;69208;47.502;18.940;2023-06-04T01:00:26;98385.06;;;14.46;43.82
65756;BME280;69208;47.502;18.940;2023-06-04T01:01:45;98389.56;;;14.37;44.28
65756;BME280;69208;47.502;18.940;2023-06-04T01:02:52;98384.63;;;14.36;45.01
65756;BME280;69208;47.502;18.940;2023-06-04T01:03:57;98390.66;;;14.36;44.83
65756;BME280;69208;47.502;18.940;2023-06-04T01:06:42;98378.41;;;14.40;44.17
65756;BME280;69208;47.502;18.940;2023-06-04T01:07:45;98383.66;;;14.49;43.64
65756;BME280;69208;47.502;18.940;2023-06-04T01:08:50;98380.91;;;14.54;43.65
65756;BME280;69208;47.502;18.940;2023-06-04T01:09:57;98375.47;;;14.50;43.73
65756;BME280;69208;47.502;18.940;2023-06-04T01:11:00;98382.59;;;14.50;44.08
65756;BME280;69208;47.502;18.940;2023-06-04T01:12:07;98378.28;;;14.54;44.42
65756;BME280;69208;47.502;18.940;2023-06-04T01:13:10;98377.63;;;14.48;44.46
65756;BME280;69208;47.502;18.940;2023-06-04T01:14:13;98374.25;;;14.56;43.83
65756;BME280;69208;47.502;18.940;2023-06-04T01:15:16;98377.03;;;14.51;44.01
65756;BME280;69208;47.502;18.940;2023-06-04T01:16:19;98372.34;;;14.48;44.49
65756;BME280;69208;47.502;18.940;2023-06-04T01:17:39;98378.41;;;14.40;44.56
65756;BME280;69208;47.502;18.940;2023-06-04T01:18:43;98373.94;;;14.41;44.07
65756;BME280;69208;47.502;18.940;2023-06-04T01:21:14;98376.38;;;14.37;43.88
65756;BME280;69208;47.502;18.940;2023-06-04T01:22:48;98380.13;;;14.27;44.32
65756;BME280;69208;47.502;18.940;2023-06-04T01:24:05;98374.38;;;14.25;44.00
65756;BME280;69208;47.502;18.940;2023-06-04T01:25:14;98378.72;;;14.30;44.25
65756;BME280;69208;47.502;18.940;2023-06-04T01:26:22;98379.50;;;14.30;43.93
65756;BME280;69208;47.502;18.940;2023-06-04T01:27:25;98379.50;;;14.30;43.72
65756;BME280;69208;47.502;18.940;2023-06-04T01:28:29;98376.56;;;14.32;43.86
65756;BME280;69208;47.502;18.940;2023-06-04T01:29:33;98377.31;;;14.15;44.37
65756;BME280;69208;47.502;18.940;2023-06-04T01:30:42;98381.22;;;14.18;44.17
65756;BME280;69208;47.502;18.940;2023-06-04T01:31:51;98385.37;;;14.19;44.63
65756;BME280;69208;47.502;18.940;2023-06-04T01:32:55;98382.59;;;14.15;44.47
65756;BME280;69208;47.502;18.940;2023-06-04T01:33:58;98383.22;;;14.12;44.37
65756;BME280;69208;47.502;18.940;2023-06-04T01:35:01;98379.50;;;14.13;44.40
65756;BME280;69208;47.502;18.940;2023-06-04T01:36:04;98380.72;;;14.16;44.58
65756;BME280;69208;47.502;18.940;2023-06-04T01:37:08;98383.34;;;14.07;44.43
65756;BME280;69208;47.502;18.940;2023-06-04T01:38:14;98381.47;;;13.99;45.13
65756;BME280;69208;47.502;18.940;2023-06-04T01:39:17;98377.16;;;14.03;44.83
65756;BME280;69208;47.502;18.940;2023-06-04T01:40:20;98372.69;;;14.12;44.35
65756;BME280;69208;47.502;18.940;2023-06-04T01:41:23;98381.22;;;14.18;44.24
65756;BME280;69208;47.502;18.940;2023-06-04T01:42:26;98386.78;;;14.16;44.00
65756;BME280;69208;47.502;18.940;2023-06-04T01:43:29;98375.47;;;14.07;44.32
65756;BME280;69208;47.502;18.940;2023-06-04T01:44:33;98381.06;;;14.05;44.65
65756;BME280;69208;47.502;18.940;2023-06-04T01:45:36;98378.56;;;14.00;44.07
65756;BME280;69208;47.502;18.940;2023-06-04T01:46:39;98382.44;;;14.03;43.99
65756;BME280;69208;47.502;18.940;2023-06-04T01:47:42;98384.59;;;14.01;44.13
65756;BME280;69208;47.502;18.940;2023-06-04T01:48:45;98380.88;;;14.02;44.17
65756;BME280;69208;47.502;18.940;2023-06-04T01:49:51;98385.97;;;13.98;45.06
65756;BME280;69208;47.502;18.940;2023-06-04T01:50:54;98387.38;;;14.04;44.54
65756;BME280;69208;47.502;18.940;2023-06-04T01:51:57;98383.34;;;14.07;43.87
65756;BME280;69208;47.502;18.940;2023-06-04T01:53:00;98374.84;;;14.01;44.05
65756;BME280;69208;47.502;18.940;2023-06-04T01:54:03;98373.59;;;13.99;44.16
65756;BME280;69208;47.502;18.940;2023-06-04T01:55:09;98377.94;;;13.95;45.28
65756;BME280;69208;47.502;18.940;2023-06-04T01:56:14;98378.25;;;14.02;44.04
65756;BME280;69208;47.502;18.940;2023-06-04T01:57:23;98385.84;;;14.03;43.95
65756;BME280;69208;47.502;18.940;2023-06-04T01:58:26;98375.00;;;13.96;43.97
65756;BME280;69208;47.502;18.940;2023-06-04T01:59:35;98381.81;;;13.97;44.08
65756;BME280;69208;47.502;18.940;2023-06-04T02:00:39;98383.81;;;14.00;43.92
65756;BME280;69208;47.502;18.940;2023-06-04T02:01:42;98385.37;;;14.01;44.63
65756;BME280;69208;47.502;18.940;2023-06-04T02:02:46;98387.22;;;13.92;44.93
65756;BME280;69208;47.502;18.940;2023-06-04T02:03:50;98386.28;;;13.88;45.69
65756;BME280;69208;47.502;18.940;2023-06-04T02:04:54;98386.91;;;13.85;45.05
65756;BME280;69208;47.502;18.940;2023-06-04T02:05:57;98395.59;;;13.94;45.67
65756;BME280;69208;47.502;18.940;2023-06-04T02:07:00;98386.91;;;13.85;45.26
65756;BME280;69208;47.502;18.940;2023-06-04T02:08:04;98392.63;;;13.87;46.26
65756;BME280;69208;47.502;18.940;2023-06-04T02:09:07;98401.63;;;13.86;46.81
65756;BME280;69208;47.502;18.940;2023-06-04T02:10:12;98394.91;;;13.71;48.31
65756;BME280;69208;47.502;18.940;2023-06-04T02:11:15;98408.25;;;13.75;48.88
65756;BME280;69208;47.502;18.940;2023-06-04T02:12:18;98402.19;;;13.65;49.68
65756;BME280;69208;47.502;18.940;2023-06-04T02:13:21;98402.50;;;13.64;50.27
65756;BME280;69208;47.502;18.940;2023-06-04T02:14:24;98404.66;;;13.62;51.23
65756;BME280;69208;47.502;18.940;2023-06-04T02:15:27;98405.59;;;13.66;50.88
65756;BME280;69208;47.502;18.940;2023-06-04T02:16:30;98406.97;;;13.55;50.73
65756;BME280;69208;47.502;18.940;2023-06-04T02:17:33;98410.41;;;13.64;51.03
65756;BME280;69208;47.502;18.940;2023-06-04T02:18:40;98415.66;;;13.64;51.50
65756;BME280;69208;47.502;18.940;2023-06-04T02:19:44;98403.53;;;13.54;51.66
65756;BME280;69208;47.502;18.940;2023-06-04T02:20:48;98406.31;;;13.49;52.00
65756;BME280;69208;47.502;18.940;2023-06-04T02:21:52;98401.53;;;13.51;52.43
65756;BME280;69208;47.502;18.940;2023-06-04T02:22:56;98407.09;;;13.50;52.45
65756;BME280;69208;47.502;18.940;2023-06-04T02:23:59;98411.44;;;13.54;52.03
65756;BME280;69208;47.502;18.940;2023-06-04T02:25:02;98407.72;;;13.47;53.09
65756;BME280;69208;47.502;18.940;2023-06-04T02:26:05;98403.84;;;13.21;53.92
65756;BME280;69208;47.502;18.940;2023-06-04T02:27:09;98410.09;;;13.26;54.06
65756;BME280;69208;47.502;18.940;2023-06-04T02:28:13;98413.00;;;13.24;54.04
65756;BME280;69208;47.502;18.940;2023-06-04T02:29:16;98407.53;;;13.12;53.91
65756;BME280;69208;47.502;18.940;2023-06-04T02:30:19;98411.03;;;13.07;53.52
65756;BME280;69208;47.502;18.940;2023-06-04T02:31:22;98413.94;;;12.97;53.97
65756;BME280;69208;47.502;18.940;2023-06-04T02:32:25;98404.47;;;12.87;54.23
65756;BME280;69208;47.502;18.940;2023-06-04T02:33:28;98411.12;;;12.93;54.67
65756;BME280;69208;47.502;18.940;2023-06-04T02:34:31;98409.72;;;12.87;55.75
65756;BME280;69208;47.502;18.940;2023-06-04T02:35:34;98412.75;;;12.81;56.14
65756;BME280;69208;47.502;18.940;2023-06-04T02:36:37;98409.97;;;12.55;57.19
65756;BME280;69208;47.502;18.940;2023-06-04T02:37:39;98415.50;;;12.53;57.34
65756;BME280;69208;47.502;18.940;2023-06-04T02:38:43;98403.13;;;12.53;57.45
65756;BME280;69208;47.502;18.940;2023-06-04T02:39:46;98404.88;;;12.58;58.13
65756;BME280;69208;47.502;18.940;2023-06-04T02:40:48;98404.09;;;12.58;58.67
65756;BME280;69208;47.502;18.940;2023-06-04T02:41:51;98398.19;;;12.52;58.94
65756;BME280;69208;47.502;18.940;2023-06-04T02:42:55;98400.06;;;12.51;57.76
65756;BME280;69208;47.502;18.940;2023-06-04T02:43:58;98403.66;;;12.42;59.01
65756;BME280;69208;47.502;18.940;2023-06-04T02:45:01;98398.53;;;12.37;59.09
65756;BME280;69208;47.502;18.940;2023-06-04T02:46:04;98394.00;;;12.28;59.80
65756;BME280;69208;47.502;18.940;2023-06-04T02:47:09;98392.97;;;12.16;60.85
65756;BME280;69208;47.502;18.940;2023-06-04T02:48:11;98395.09;;;12.14;60.39
65756;BME280;69208;47.502;18.940;2023-06-04T02:49:15;98397.94;;;12.03;59.87
65756;BME280;69208;47.502;18.940;2023-06-04T02:50:19;98392.75;;;12.12;60.06
65756;BME280;69208;47.502;18.940;2023-06-04T02:51:22;98396.66;;;12.15;58.28
65756;BME280;69208;47.502;18.940;2023-06-04T02:52:25;98390.06;;;12.03;59.67
65756;BME280;69208;47.502;18.940;2023-06-04T02:53:28;98400.53;;;12.17;57.38
65756;BME280;69208;47.502;18.940;2023-06-04T02:54:31;98401.63;;;12.16;57.42
65756;BME280;69208;47.502;18.940;2023-06-04T02:55:34;98394.44;;;12.08;58.26
65756;BME280;69208;47.502;18.940;2023-06-04T02:56:37;98392.59;;;12.09;54.57
65756;BME280;69208;47.502;18.940;2023-06-04T02:57:42;98384.69;;;12.09;55.98
65756;BME280;69208;47.502;18.940;2023-06-04T02:58:55;98393.00;;;12.02;56.69
65756;BME280;69208;47.502;18.940;2023-06-04T02:59:59;98388.34;;;11.99;57.53
65756;BME280;69208;47.502;18.940;2023-06-04T03:01:02;98388.09;;;12.09;56.67
65756;BME280;69208;47.502;18.940;2023-06-04T03:02:05;98384.44;;;12.33;53.06
65756;BME280;69208;47.502;18.940;2023-06-04T03:03:08;98388.31;;;12.35;52.62
65756;BME280;69208;47.502;18.940;2023-06-04T03:04:11;98389.06;;;12.49;50.26
65756;BME280;69208;47.502;18.940;2023-06-04T03:05:18;98387.50;;;12.48;50.55
65756;BME280;69208;47.502;18.940;2023-06-04T03:06:21;98390.13;;;12.48;51.52
65756;BME280;69208;47.502;18.940;2023-06-04T03:07:24;98392.81;;;12.57;51.00
65756;BME280;69208;47.502;18.940;2023-06-04T03:08:28;98384.84;;;12.71;48.17
65756;BME280;69208;47.502;18.940;2023-06-04T03:09:31;98389.47;;;12.65;49.65
65756;BME280;69208;47.502;18.940;2023-06-04T03:10:34;98389.78;;;12.64;50.29
65756;BME280;69208;47.502;18.940;2023-06-04T03:11:37;98395.09;;;12.72;49.82
65756;BME280;69208;47.502;18.940;2023-06-04T03:12:40;98388.62;;;12.79;49.39
65756;BME280;69208;47.502;18.940;2023-06-04T03:13:43;98385.28;;;12.87;47.90
65756;BME280;69208;47.502;18.940;2023-06-04T03:14:46;98380.53;;;12.97;47.26
65756;BME280;69208;47.502;18.940;2023-06-04T03:15:48;98389.19;;;12.98;47.67
65756;BME280;69208;47.502;18.940;2023-06-04T03:16:51;98388.47;;;13.06;47.08
65756;BME280;69208;47.502;18.940;2023-06-04T03:17:55;98385.06;;;13.06;46.84
65756;BME280;69208;47.502;18.940;2023-06-04T03:18:57;98383.19;;;13.06;47.67
65756;BME280;69208;47.502;18.940;2023-06-04T03:20:00;98383.56;;;13.13;48.88
65756;BME280;69208;47.502;18.940;2023-06-04T03:21:04;98382.09;;;13.30;46.63
65756;BME280;69208;47.502;18.940;2023-06-04T03:22:09;98387.41;;;13.16;46.94
65756;BME280;69208;47.502;18.940;2023-06-04T03:23:13;98390.38;;;13.14;46.59
65756;BME280;69208;47.502;18.940;2023-06-04T03:24:16;98387.13;;;13.17;48.38
65756;BME280;69208;47.502;18.940;2023-06-04T03:25:18;98397.88;;;13.30;46.34
65756;BME280;69208;47.502;18.940;2023-06-04T03:26:21;98390.59;;;13.27;47.05
65756;BME280;69208;47.502;18.940;2023-06-04T03:27:24;98396.22;;;13.42;45.77
65756;BME280;69208;47.502;18.940;2023-06-04T03:28:27;98402.69;;;13.36;45.77
65756;BME280;69208;47.502;18.940;2023-06-04T03:29:34;98402.84;;;13.31;47.30
65756;BME280;69208;47.502;18.940;2023-06-04T03:30:37;98402.22;;;13.26;47.66
65756;BME280;69208;47.502;18.940;2023-06-04T03:31:40;98396.94;;;13.26;48.92
65756;BME280;69208;47.502;18.940;2023-06-04T03:32:43;98402.22;;;13.26;49.25
65756;BME280;69208;47.502;18.940;2023-06-04T03:33:48;98402.00;;;13.22;51.09
65756;BME280;69208;47.502;18.940;2023-06-04T03:34:51;98407.19;;;13.05;53.17
65756;BME280;69208;47.502;18.940;2023-06-04T03:35:53;98405.94;;;13.02;53.55
65756;BME280;69208;47.502;18.940;2023-06-04T03:37:00;98412.19;;;13.15;53.64
65756;BME280;69208;47.502;18.940;2023-06-04T03:38:03;98410.47;;;13.10;55.51
65756;BME280;69208;47.502;18.940;2023-06-04T03:39:05;98412.78;;;13.12;54.24
65756;BME280;69208;47.502;18.940;2023-06-04T03:40:09;98414.22;;;13.18;53.21
65756;BME280;69208;47.502;18.940;2023-06-04T03:41:12;98410.94;;;13.12;53.62
65756;BME280;69208;47.502;18.940;2023-06-04T03:42:14;98421.88;;;13.06;53.65
65756;BME280;69208;47.502;18.940;2023-06-04T03:43:18;98422.47;;;13.03;54.16
65756;BME280;69208;47.502;18.940;2023-06-04T03:44:22;98418.03;;;13.12;55.91
65756;BME280;69208;47.502;18.940;2023-06-04T03:45:25;98420.69;;;13.12;55.70
65756;BME280;69208;47.502;18.940;2023-06-04T03:46:27;98422.22;;;13.13;56.35
65756;BME280;69208;47.502;18.940;2023-06-04T03:47:34;98424.06;;;13.12;58.30
65756;BME280;69208;47.502;18.940;2023-06-04T03:48:37;98427.16;;;13.06;58.51
65756;BME280;69208;47.502;18.940;2023-06-04T03:49:40;98421.28;;;13.09;60.14
65756;BME280;69208;47.502;18.940;2023-06-04T03:50:43;98427.16;;;13.06;59.14
65756;BME280;69208;47.502;18.940;2023-06-04T03:51:48;98420.69;;;13.12;59.15
65756;BME280;69208;47.502;18.940;2023-06-04T03:52:51;98420.53;;;12.86;61.34
65756;BME280;69208;47.502;18.940;2023-06-04T03:53:54;98426.91;;;12.93;61.44
65756;BME280;69208;47.502;18.940;2023-06-04T03:54:57;98424.78;;;12.95;60.98
65756;BME280;69208;47.502;18.940;2023-06-04T03:56:00;98424.72;;;12.87;60.69
65756;BME280;69208;47.502;18.940;2023-06-04T03:57:03;98424.13;;;12.90;61.26
65756;BME280;69208;47.502;18.940;2023-06-04T03:58:06;98425.13;;;13.03;61.84
65756;BME280;69208;47.502;18.940;2023-06-04T03:59:12;98420.28;;;12.73;62.78
65756;BME280;69208;47.502;18.940;2023-06-04T04:00:15;98423.91;;;12.86;63.00
65756;BME280;69208;47.502;18.940;2023-06-04T04:01:18;98422.97;;;12.82;63.49
65756;BME280;69208;47.502;18.940;2023-06-04T04:02:21;98421.97;;;12.69;64.04
65756;BME280;69208;47.502;18.940;2023-06-04T04:03:24;98422.91;;;12.73;63.42
65756;BME280;69208;47.502;18.940;2023-06-04T04:04:27;98426.22;;;12.79;63.29
65756;BME280;69208;47.502;18.940;2023-06-04T04:05:30;98432.56;;;12.78;63.54
65756;BME280;69208;47.502;18.940;2023-06-04T04:06:33;98427.09;;;12.74;64.16
65756;BME280;69208;47.502;18.940;2023-06-04T04:07:37;98427.28;;;12.78;64.64
65756;BME280;69208;47.502;18.940;2023-06-04T04:08:40;98431.22;;;12.67;65.00
65756;BME280;69208;47.502;18.940;2023-06-04T04:09:45;98429.41;;;12.53;65.73
65756;BME280;69208;47.502;18.940;2023-06-04T04:10:48;98438.66;;;12.51;65.73
65756;BME280;69208;47.502;18.940;2023-06-04T04:11:51;98434.06;;;12.34;66.75
65756;BME280;69208;47.502;18.940;2023-06-04T04:12:53;98433.81;;;12.44;66.10
65756;BME280;69208;47.502;18.940;2023-06-04T04:13:57;98434.22;;;12.51;64.59
65756;BME280;69208;47.502;18.940;2023-06-04T04:15:00;98430.41;;;12.58;64.46
65756;BME280;69208;47.502;18.940;2023-06-04T04:16:04;98433.09;;;12.66;63.52
65756;BME280;69208;47.502;18.940;2023-06-04T04:17:07;98438.72;;;12.60;64.31
65756;BME280;69208;47.502;18.940;2023-06-04T04:18:10;98438.13;;;12.63;64.95
65756;BME280;69208;47.502;18.940;2023-06-04T04:19:13;98441.44;;;12.68;64.79
65756;BME280;69208;47.502;18.940;2023-06-04T04:20:17;98439.72;;;12.64;64.65
65756;BME280;69208;47.502;18.940;2023-06-04T04:21:20;98439.28;;;12.70;64.79
65756;BME280;69208;47.502;18.940;2023-06-04T04:22:23;98433.38;;;12.65;65.32
65756;BME280;69208;47.502;18.940;2023-06-04T04:23:26;98435.34;;;12.59;66.07
65756;BME280;69208;47.502;18.940;2023-06-04T04:24:29;98428.72;;;12.62;66.49
65756;BME280;69208;47.502;18.940;2023-06-04T04:25:32;98427.22;;;12.69;64.99
65756;BME280;69208;47.502;18.940;2023-06-04T04:26:35;98424.41;;;12.66;65.00
65756;BME280;69208;47.502;18.940;2023-06-04T04:27:38;98427.69;;;12.71;65.98
65756;BME280;69208;47.502;18.940;2023-06-04T04:28:43;98421.84;;;12.74;67.15
65756;BME280;69208;47.502;18.940;2023-06-04T04:29:46;98435.84;;;12.84;67.86
65756;BME280;69208;47.502;18.940;2023-06-04T04:30:50;98435.53;;;12.85;67.46
65756;BME280;69208;47.502;18.940;2023-06-04T04:31:54;98436.56;;;12.75;67.17
65756;BME280;69208;47.502;18.940;2023-06-04T04:32:59;98440.50;;;12.87;67.73
65756;BME280;69208;47.502;18.940;2023-06-04T04:34:02;98439.69;;;12.86;68.48
65756;BME280;69208;47.502;18.940;2023-06-04T04:35:09;98441.56;;;12.86;68.27
65756;BME280;69208;47.502;18.940;2023-06-04T04:36:13;98448.91;;;12.97;68.08
65756;BME280;69208;47.502;18.940;2023-06-04T04:37:16;98451.41;;;13.03;66.37
65756;BME280;69208;47.502;18.940;2023-06-04T04:38:20;98449.50;;;12.94;64.17
65756;BME280;69208;47.502;18.940;2023-06-04T04:39:26;98446.59;;;12.96;64.05
65756;BME280;69208;47.502;18.940;2023-06-04T04:40:30;98456.00;;;13.19;64.75
65756;BME280;69208;47.502;18.940;2023-06-04T04:41:33;98448.34;;;13.32;65.79
65756;BME280;69208;47.502;18.940;2023-06-04T04:42:36;98449.56;;;13.26;67.87
65756;BME280;69208;47.502;18.940;2023-06-04T04:43:39;98452.41;;;13.38;67.53
65756;BME280;69208;47.502;18.940;2023-06-04T04:44:42;98448.44;;;13.49;67.65
65756;BME280;69208;47.502;18.940;2023-06-04T04:45:49;98447.06;;;13.52;66.84
65756;BME280;69208;47.502;18.940;2023-06-04T04:46:52;98447.22;;;13.55;68.81
65756;BME280;69208;47.502;18.940;2023-06-04T04:47:55;98455.28;;;13.59;70.27
65756;BME280;69208;47.502;18.940;2023-06-04T04:48:58;98447.56;;;13.71;68.06
65756;BME280;69208;47.502;18.940;2023-06-04T04:50:01;98441.88;;;13.78;66.42
65756;BME280;69208;47.502;18.940;2023-06-04T04:51:04;98445.47;;;13.82;66.03
65756;BME280;69208;47.502;18.940;2023-06-04T04:52:07;98441.44;;;13.84;65.96
65756;BME280;69208;47.502;18.940;2023-06-04T04:53:10;98441.72;;;13.83;64.73
65756;BME280;69208;47.502;18.940;2023-06-04T04:54:13;98441.28;;;13.89;64.68
65756;BME280;69208;47.502;18.940;2023-06-04T04:55:16;98449.53;;;13.97;65.33
65756;BME280;69208;47.502;18.940;2023-06-04T04:56:19;98447.03;;;14.00;64.21
65756;BME280;69208;47.502;18.940;2023-06-04T04:57:23;98439.94;;;14.09;60.95
65756;BME280;69208;47.502;18.940;2023-06-04T04:58:26;98441.47;;;14.19;61.74
65756;BME280;69208;47.502;18.940;2023-06-04T04:59:29;98452.00;;;14.02;63.46
65756;BME280;69208;47.502;18.940;2023-06-04T05:00:32;98454.31;;;13.95;62.09
65756;BME280;69208;47.502;18.940;2023-06-04T05:01:35;98453.56;;;14.03;61.91
65756;BME280;69208;47.502;18.940;2023-06-04T05:02:38;98456.19;;;14.03;62.14
65756;BME280;69208;47.502;18.940;2023-06-04T05:03:41;98452.00;;;14.02;62.59
65756;BME280;69208;47.502;18.940;2023-06-04T05:04:44;98454.50;;;14.16;62.61
65756;BME280;69208;47.502;18.940;2023-06-04T05:05:47;98448.16;;;14.25;62.42
65756;BME280;69208;47.502;18.940;2023-06-04T05:06:50;98449.09;;;14.21;62.66
65756;BME280;69208;47.502;18.940;2023-06-04T05:07:53;98454.06;;;14.40;62.70
65756;BME280;69208;47.502;18.940;2023-06-04T05:08:55;98451.56;;;14.43;61.49
65756;BME280;69208;47.502;18.940;2023-06-04T05:09:58;98456.88;;;14.34;61.71
65756;BME280;69208;47.502;18.940;2023-06-04T05:11:01;98453.13;;;14.36;61.30
65756;BME280;69208;47.502;18.940;2023-06-04T05:12:04;98452.19;;;14.49;61.66
65756;BME280;69208;47.502;18.940;2023-06-04T05:13:08;98463.34;;;14.37;63.96
65756;BME280;69208;47.502;18.940;2023-06-04T05:14:11;98463.41;;;14.54;65.66
65756;BME280;69208;47.502;18.940;2023-06-04T05:15:14;98465.25;;;14.54;66.44
65756;BME280;69208;47.502;18.940;2023-06-04T05:16:20;98456.59;;;14.62;65.31
65756;BME280;69208;47.502;18.940;2023-06-04T05:17:23;98462.00;;;14.66;66.47
65756;BME280;69208;47.502;18.940;2023-06-04T05:18:33;98460.13;;;14.75;66.40
65756;BME280;69208;47.502;18.940;2023-06-04T05:19:37;98463.41;;;14.81;64.19
65756;BME280;69208;47.502;18.940;2023-06-04T05:20:41;98467.91;;;14.80;65.63
65756;BME280;69208;47.502;18.940;2023-06-04T05:21:44;98470.22;;;14.82;67.05
65756;BME280;69208;47.502;18.940;2023-06-04T05:22:47;98467.75;;;14.68;68.54
65756;BME280;69208;47.502;18.940;2023-06-04T05:23:50;98477.53;;;14.59;67.86
65756;BME280;69208;47.502;18.940;2023-06-04T05:24:53;98481.84;;;14.63;66.12
65756;BME280;69208;47.502;18.940;2023-06-04T05:25:56;98481.38;;;14.70;64.76
65756;BME280;69208;47.502;18.940;2023-06-04T05:26:58;98478.31;;;14.68;61.37
65756;BME280;69208;47.502;18.940;2023-06-04T05:28:01;98475.34;;;14.87;62.51
65756;BME280;69208;47.502;18.940;2023-06-04T05:29:05;98476.13;;;14.78;62.40
65756;BME280;69208;47.502;18.940;2023-06-04T05:30:09;98474.09;;;14.84;62.59
65756;BME280;69208;47.502;18.940;2023-06-04T05:31:12;98483.72;;;14.89;62.54
65756;BME280;69208;47.502;18.940;2023-06-04T05:32:15;98477.34;;;14.90;63.96
65756;BME280;69208;47.502;18.940;2023-06-04T05:33:18;98474.84;;;14.93;61.88
65756;BME280;69208;47.502;18.940;2023-06-04T05:34:21;98471.44;;;14.93;62.76
65756;BME280;69208;47.502;18.940;2023-06-04T05:35:24;98474.41;;;14.91;63.01
65756;BME280;69208;47.502;18.940;2023-06-04T05:36:28;98476.91;;;14.79;65.12